Jacobson, Minnesota
Current Conditions -  °F | °C
As of 5:15 AM on Friday 24 Oct 2014 (Local Time) from KGPZ Reporting Station
Clear Clear  
Wind Chill: 45°   Ceiling: Unl
Heat Index: 48°   Visibility: 10mi
Dew Point: 39°   Wind: 7mph
Humidity: 71%   Direction: 170°S
Pressure: 29.84"   Gusts: NA
Location:  47°N, 93.27°W
Report Text: KGPZ 241015Z AUTO 17006KT 10SM CLR 09/04 A2984 RMK AO1
Loading
Personal Weather Stations






























Interactive Weather Map
Tropical Storm Tracking
New forecast layout! Learn more

10-Day Weather Forecast

Advertisements
Track Severe Weather on mobile